sensor_id;sensor_type;location;lat;lon;timestamp;pressure;altitude;pressure_sealevel;temperature;humidity
78317;BME280;67572;50.930;18.276;2023-04-24T00:02:26;98067.28;;;13.06;68.47
78317;BME280;67572;50.930;18.276;2023-04-24T00:05:30;98067.84;;;13.10;68.49
78317;BME280;67572;50.930;18.276;2023-04-24T00:08:35;98068.94;;;13.17;67.96
78317;BME280;67572;50.930;18.276;2023-04-24T00:11:38;98066.00;;;13.20;67.69
78317;BME280;67572;50.930;18.276;2023-04-24T00:14:42;98061.22;;;13.23;67.31
78317;BME280;67572;50.930;18.276;2023-04-24T00:18:20;98053.47;;;13.30;66.99
78317;BME280;67572;50.930;18.276;2023-04-24T00:21:23;98053.00;;;13.35;66.62
78317;BME280;67572;50.930;18.276;2023-04-24T00:24:27;98051.56;;;13.40;66.72
78317;BME280;67572;50.930;18.276;2023-04-24T00:27:31;98048.06;;;13.40;66.82
78317;BME280;67572;50.930;18.276;2023-04-24T00:30:34;98052.84;;;13.36;66.99
78317;BME280;67572;50.930;18.276;2023-04-24T00:33:41;98038.13;;;13.32;67.41
78317;BME280;67572;50.930;18.276;2023-04-24T00:36:44;98039.66;;;13.35;66.86
78317;BME280;67572;50.930;18.276;2023-04-24T00:39:48;98036.78;;;13.46;66.48
78317;BME280;67572;50.930;18.276;2023-04-24T00:42:51;98033.81;;;13.49;66.33
78317;BME280;67572;50.930;18.276;2023-04-24T00:45:58;98033.03;;;13.39;66.83
78317;BME280;67572;50.930;18.276;2023-04-24T00:49:05;98039.16;;;13.49;66.46
78317;BME280;67572;50.930;18.276;2023-04-24T00:52:08;98030.97;;;13.50;66.33
78317;BME280;67572;50.930;18.276;2023-04-24T00:55:12;98032.53;;;13.53;66.57
78317;BME280;67572;50.930;18.276;2023-04-24T00:58:16;98027.53;;;13.40;66.80
78317;BME280;67572;50.930;18.276;2023-04-24T01:01:20;98020.81;;;13.36;67.43
78317;BME280;67572;50.930;18.276;2023-04-24T01:04:26;98022.78;;;13.34;67.29
78317;BME280;67572;50.930;18.276;2023-04-24T01:07:30;98021.84;;;13.53;66.81
78317;BME280;67572;50.930;18.276;2023-04-24T01:10:36;98011.44;;;13.50;66.60
78317;BME280;67572;50.930;18.276;2023-04-24T01:13:42;98017.78;;;13.67;66.05
78317;BME280;67572;50.930;18.276;2023-04-24T01:16:45;98017.88;;;13.57;66.61
78317;BME280;67572;50.930;18.276;2023-04-24T01:19:50;98020.22;;;13.60;65.97
78317;BME280;67572;50.930;18.276;2023-04-24T01:22:57;98022.28;;;13.66;65.82
78317;BME280;67572;50.930;18.276;2023-04-24T01:26:01;98023.91;;;13.77;65.37
78317;BME280;67572;50.930;18.276;2023-04-24T01:29:04;98026.53;;;13.69;66.42
78317;BME280;67572;50.930;18.276;2023-04-24T01:32:09;98026.81;;;13.83;65.08
78317;BME280;67572;50.930;18.276;2023-04-24T01:35:14;98019.25;;;13.79;65.60
78317;BME280;67572;50.930;18.276;2023-04-24T01:38:19;98021.97;;;13.51;67.03
78317;BME280;67572;50.930;18.276;2023-04-24T01:41:22;98014.75;;;13.79;65.70
78317;BME280;67572;50.930;18.276;2023-04-24T01:44:26;98020.25;;;13.96;64.42
78317;BME280;67572;50.930;18.276;2023-04-24T01:47:31;98015.06;;;13.94;64.63
78317;BME280;67572;50.930;18.276;2023-04-24T01:50:34;98012.31;;;13.68;65.60
78317;BME280;67572;50.930;18.276;2023-04-24T01:53:39;98012.38;;;13.58;66.16
78317;BME280;67572;50.930;18.276;2023-04-24T01:56:44;98015.84;;;13.69;64.85
78317;BME280;67572;50.930;18.276;2023-04-24T01:59:48;97997.41;;;13.48;66.29
78317;BME280;67572;50.930;18.276;2023-04-24T02:02:51;98009.94;;;13.47;66.70
78317;BME280;67572;50.930;18.276;2023-04-24T02:05:55;98004.75;;;13.46;66.71
78317;BME280;67572;50.930;18.276;2023-04-24T02:09:00;98001.31;;;13.53;64.76
78317;BME280;67572;50.930;18.276;2023-04-24T02:12:04;97997.56;;;13.64;64.16
78317;BME280;67572;50.930;18.276;2023-04-24T02:15:08;97993.28;;;13.89;62.09
78317;BME280;67572;50.930;18.276;2023-04-24T02:18:12;97989.88;;;13.61;63.26
78317;BME280;67572;50.930;18.276;2023-04-24T02:21:15;97984.13;;;13.74;61.78
78317;BME280;67572;50.930;18.276;2023-04-24T02:24:20;97979.09;;;13.88;59.00
78317;BME280;67572;50.930;18.276;2023-04-24T02:27:24;97979.16;;;14.14;56.46
78317;BME280;67572;50.930;18.276;2023-04-24T02:30:27;97970.06;;;13.89;56.74
78317;BME280;67572;50.930;18.276;2023-04-24T02:33:31;97959.88;;;14.11;55.72
78317;BME280;67572;50.930;18.276;2023-04-24T02:36:34;97968.59;;;14.13;54.10
78317;BME280;67572;50.930;18.276;2023-04-24T02:39:39;97963.84;;;13.99;54.43
78317;BME280;67572;50.930;18.276;2023-04-24T02:42:43;97964.78;;;14.15;53.54
78317;BME280;67572;50.930;18.276;2023-04-24T02:45:46;97950.59;;;14.15;53.28
78317;BME280;67572;50.930;18.276;2023-04-24T02:48:50;97954.53;;;14.11;53.59
78317;BME280;67572;50.930;18.276;2023-04-24T02:51:53;97953.75;;;14.19;53.20
78317;BME280;67572;50.930;18.276;2023-04-24T02:54:58;97950.78;;;14.22;53.21
78317;BME280;67572;50.930;18.276;2023-04-24T02:58:01;97948.91;;;14.14;53.64
78317;BME280;67572;50.930;18.276;2023-04-24T03:01:05;97945.03;;;14.08;54.17
78317;BME280;67572;50.930;18.276;2023-04-24T03:04:08;97938.34;;;14.12;53.22
78317;BME280;67572;50.930;18.276;2023-04-24T03:07:12;97938.78;;;14.26;52.47
78317;BME280;67572;50.930;18.276;2023-04-24T03:10:17;97937.28;;;14.49;48.77
78317;BME280;67572;50.930;18.276;2023-04-24T03:13:22;97943.84;;;14.89;46.50
78317;BME280;67572;50.930;18.276;2023-04-24T03:16:26;97946.22;;;15.08;45.24
78317;BME280;67572;50.930;18.276;2023-04-24T03:19:29;97943.56;;;15.16;43.54
78317;BME280;67572;50.930;18.276;2023-04-24T03:22:38;97957.63;;;15.18;44.36
78317;BME280;67572;50.930;18.276;2023-04-24T03:25:44;97956.72;;;14.93;46.25
78317;BME280;67572;50.930;18.276;2023-04-24T03:28:47;97955.44;;;14.71;48.51
78317;BME280;67572;50.930;18.276;2023-04-24T03:31:51;97964.25;;;14.38;50.59
78317;BME280;67572;50.930;18.276;2023-04-24T03:34:55;97958.28;;;14.18;51.57
78317;BME280;67572;50.930;18.276;2023-04-24T03:37:58;97964.22;;;14.30;52.11
78317;BME280;67572;50.930;18.276;2023-04-24T03:41:18;97962.06;;;14.33;51.42
78317;BME280;67572;50.930;18.276;2023-04-24T03:44:29;97957.25;;;14.37;50.73
78317;BME280;67572;50.930;18.276;2023-04-24T03:47:32;97959.53;;;14.32;50.87
78317;BME280;67572;50.930;18.276;2023-04-24T03:50:38;97963.06;;;14.06;51.33
78317;BME280;67572;50.930;18.276;2023-04-24T03:53:44;97965.56;;;14.34;50.50
78317;BME280;67572;50.930;18.276;2023-04-24T03:56:53;97965.00;;;14.22;50.81
78317;BME280;67572;50.930;18.276;2023-04-24T03:59:58;97959.50;;;14.24;51.18
78317;BME280;67572;50.930;18.276;2023-04-24T04:03:02;97961.25;;;14.41;49.64
78317;BME280;67572;50.930;18.276;2023-04-24T04:06:06;97969.44;;;14.39;49.58
78317;BME280;67572;50.930;18.276;2023-04-24T04:09:09;97963.63;;;14.18;52.78
78317;BME280;67572;50.930;18.276;2023-04-24T04:12:14;97956.09;;;14.13;50.39
78317;BME280;67572;50.930;18.276;2023-04-24T04:15:18;97965.41;;;14.09;50.72
78317;BME280;67572;50.930;18.276;2023-04-24T04:18:22;97962.69;;;14.27;50.19
78317;BME280;67572;50.930;18.276;2023-04-24T04:21:26;97963.91;;;13.89;50.96
78317;BME280;67572;50.930;18.276;2023-04-24T04:24:39;97965.41;;;14.09;49.97
78317;BME280;67572;50.930;18.276;2023-04-24T04:27:45;97962.44;;;13.95;51.61
78317;BME280;67572;50.930;18.276;2023-04-24T04:30:49;97962.53;;;14.29;50.68
78317;BME280;67572;50.930;18.276;2023-04-24T04:33:57;97950.19;;;14.10;50.99
78317;BME280;67572;50.930;18.276;2023-04-24T04:37:01;97952.69;;;13.85;52.83
78317;BME280;67572;50.930;18.276;2023-04-24T04:40:34;97955.22;;;13.87;50.58
78317;BME280;67572;50.930;18.276;2023-04-24T04:43:41;97952.16;;;13.82;53.08
78317;BME280;67572;50.930;18.276;2023-04-24T04:46:45;97957.88;;;13.87;51.41
78317;BME280;67572;50.930;18.276;2023-04-24T04:49:56;97952.84;;;13.66;53.36
78317;BME280;67572;50.930;18.276;2023-04-24T04:53:02;97950.34;;;13.65;55.72
78317;BME280;67572;50.930;18.276;2023-04-24T04:56:09;97956.00;;;13.62;55.12
78317;BME280;67572;50.930;18.276;2023-04-24T04:59:18;97953.63;;;13.58;54.86
78317;BME280;67572;50.930;18.276;2023-04-24T05:02:25;97955.53;;;13.48;56.41
78317;BME280;67572;50.930;18.276;2023-04-24T05:05:29;97954.09;;;13.54;56.97
78317;BME280;67572;50.930;18.276;2023-04-24T05:08:32;97959.56;;;13.52;57.07
78317;BME280;67572;50.930;18.276;2023-04-24T05:11:37;97960.19;;;13.64;57.04
78317;BME280;67572;50.930;18.276;2023-04-24T05:14:42;97956.88;;;13.52;54.63
78317;BME280;67572;50.930;18.276;2023-04-24T05:17:46;97956.44;;;13.57;54.25
78317;BME280;67572;50.930;18.276;2023-04-24T05:20:50;97964.38;;;13.67;54.79
78317;BME280;67572;50.930;18.276;2023-04-24T05:23:54;97954.41;;;13.69;53.02
78317;BME280;67572;50.930;18.276;2023-04-24T05:27:18;97959.94;;;13.93;54.14
78317;BME280;67572;50.930;18.276;2023-04-24T05:30:25;97955.34;;;13.68;56.26
78317;BME280;67572;50.930;18.276;2023-04-24T05:33:29;97959.72;;;13.86;54.10
78317;BME280;67572;50.930;18.276;2023-04-24T05:36:33;97951.91;;;13.93;54.44
78317;BME280;67572;50.930;18.276;2023-04-24T05:39:36;97955.56;;;14.36;52.40
78317;BME280;67572;50.930;18.276;2023-04-24T05:42:40;97953.81;;;14.27;53.86
78317;BME280;67572;50.930;18.276;2023-04-24T05:45:44;97957.28;;;14.45;52.28
78317;BME280;67572;50.930;18.276;2023-04-24T05:48:48;97955.72;;;14.60;51.22
78317;BME280;67572;50.930;18.276;2023-04-24T05:51:52;97952.09;;;14.69;52.16
78317;BME280;67572;50.930;18.276;2023-04-24T05:54:56;97951.47;;;14.76;51.10
78317;BME280;67572;50.930;18.276;2023-04-24T05:58:04;97942.69;;;14.99;48.69
78317;BME280;67572;50.930;18.276;2023-04-24T06:01:11;97949.59;;;15.18;48.89
78317;BME280;67572;50.930;18.276;2023-04-24T06:04:18;97941.09;;;15.31;49.57
78317;BME280;67572;50.930;18.276;2023-04-24T06:07:22;97951.63;;;15.24;50.54
78317;BME280;67572;50.930;18.276;2023-04-24T06:10:25;97946.66;;;15.54;52.23
78317;BME280;67572;50.930;18.276;2023-04-24T06:13:29;97952.03;;;15.54;52.82
78317;BME280;67572;50.930;18.276;2023-04-24T06:16:57;97952.53;;;15.58;52.08
78317;BME280;67572;50.930;18.276;2023-04-24T06:20:11;97951.41;;;15.93;49.75
78317;BME280;67572;50.930;18.276;2023-04-24T06:23:14;97954.75;;;15.78;47.46
78317;BME280;67572;50.930;18.276;2023-04-24T06:26:18;97951.09;;;15.96;46.76
78317;BME280;67572;50.930;18.276;2023-04-24T06:29:21;97948.56;;;15.86;46.36
78317;BME280;67572;50.930;18.276;2023-04-24T06:32:27;97946.03;;;15.93;46.22
78317;BME280;67572;50.930;18.276;2023-04-24T06:35:30;97945.38;;;15.82;45.67
78317;BME280;67572;50.930;18.276;2023-04-24T06:38:34;97938.16;;;16.07;45.15
78317;BME280;67572;50.930;18.276;2023-04-24T06:41:37;97942.19;;;16.20;44.99
78317;BME280;67572;50.930;18.276;2023-04-24T06:44:49;97941.34;;;16.11;44.91
78317;BME280;67572;50.930;18.276;2023-04-24T06:47:54;97944.34;;;16.24;43.88
78317;BME280;67572;50.930;18.276;2023-04-24T06:50:57;97946.19;;;16.16;43.25
78317;BME280;67572;50.930;18.276;2023-04-24T06:54:01;97950.56;;;16.08;43.87
78317;BME280;67572;50.930;18.276;2023-04-24T06:57:04;97943.69;;;16.06;42.63
78317;BME280;67572;50.930;18.276;2023-04-24T07:00:09;97949.97;;;16.54;42.98
78317;BME280;67572;50.930;18.276;2023-04-24T07:03:14;97938.13;;;16.24;42.64
78317;BME280;67572;50.930;18.276;2023-04-24T07:06:18;97945.00;;;16.43;43.39
78317;BME280;67572;50.930;18.276;2023-04-24T07:09:25;97939.84;;;16.25;43.41
78317;BME280;67572;50.930;18.276;2023-04-24T07:12:29;97946.47;;;16.45;44.04
78317;BME280;67572;50.930;18.276;2023-04-24T07:15:33;97940.66;;;16.33;43.84
78317;BME280;67572;50.930;18.276;2023-04-24T07:18:38;97937.78;;;16.35;42.04
78317;BME280;67572;50.930;18.276;2023-04-24T07:21:42;97943.75;;;16.61;42.63
78317;BME280;67572;50.930;18.276;2023-04-24T07:24:45;97939.22;;;16.78;42.54
78317;BME280;67572;50.930;18.276;2023-04-24T07:27:49;97937.38;;;16.54;42.23
78317;BME280;67572;50.930;18.276;2023-04-24T07:30:52;97941.56;;;16.73;42.48
78317;BME280;67572;50.930;18.276;2023-04-24T07:33:57;97943.25;;;16.74;41.97
78317;BME280;67572;50.930;18.276;2023-04-24T07:37:01;97947.38;;;16.85;43.34
78317;BME280;67572;50.930;18.276;2023-04-24T07:40:06;97935.69;;;16.78;41.94
78317;BME280;67572;50.930;18.276;2023-04-24T07:43:09;97936.72;;;16.60;42.56
78317;BME280;67572;50.930;18.276;2023-04-24T07:46:13;97934.97;;;16.84;42.78
78317;BME280;67572;50.930;18.276;2023-04-24T07:49:18;97937.25;;;16.56;43.22
78317;BME280;67572;50.930;18.276;2023-04-24T07:52:21;97939.72;;;16.74;44.01
78317;BME280;67572;50.930;18.276;2023-04-24T07:55:25;97934.53;;;16.64;43.64
78317;BME280;67572;50.930;18.276;2023-04-24T07:58:29;97946.28;;;16.55;43.97
78317;BME280;67572;50.930;18.276;2023-04-24T08:01:33;97943.75;;;16.70;44.20
78317;BME280;67572;50.930;18.276;2023-04-24T08:04:37;97942.53;;;16.88;44.68
78317;BME280;67572;50.930;18.276;2023-04-24T08:07:41;97943.00;;;16.92;44.38
78317;BME280;67572;50.930;18.276;2023-04-24T08:10:47;97939.81;;;16.97;44.47
78317;BME280;67572;50.930;18.276;2023-04-24T08:13:51;97941.75;;;17.11;44.36
78317;BME280;67572;50.930;18.276;2023-04-24T08:16:55;97944.28;;;17.04;45.58
78317;BME280;67572;50.930;18.276;2023-04-24T08:20:09;97940.22;;;17.16;45.10
78317;BME280;67572;50.930;18.276;2023-04-24T08:23:15;97941.19;;;17.24;44.76
78317;BME280;67572;50.930;18.276;2023-04-24T08:26:19;97947.97;;;17.11;45.47
78317;BME280;67572;50.930;18.276;2023-04-24T08:29:23;97946.72;;;17.22;45.25
78317;BME280;67572;50.930;18.276;2023-04-24T08:32:26;97941.66;;;17.27;45.86
78317;BME280;67572;50.930;18.276;2023-04-24T08:35:32;97937.06;;;17.36;44.91
78317;BME280;67572;50.930;18.276;2023-04-24T08:38:36;97942.31;;;17.29;44.17
78317;BME280;67572;50.930;18.276;2023-04-24T08:41:41;97935.22;;;17.59;45.33
78317;BME280;67572;50.930;18.276;2023-04-24T08:44:45;97948.81;;;17.89;43.82
78317;BME280;67572;50.930;18.276;2023-04-24T08:47:49;97933.03;;;17.63;43.67
78317;BME280;67572;50.930;18.276;2023-04-24T08:50:55;97944.13;;;18.06;45.28
78317;BME280;67572;50.930;18.276;2023-04-24T08:54:00;97933.19;;;18.30;44.51
78317;BME280;67572;50.930;18.276;2023-04-24T08:57:07;97931.13;;;18.32;43.88
78317;BME280;67572;50.930;18.276;2023-04-24T09:00:14;97930.31;;;17.94;42.86
78317;BME280;67572;50.930;18.276;2023-04-24T09:03:18;97932.63;;;18.49;42.79
78317;BME280;67572;50.930;18.276;2023-04-24T09:06:25;97933.19;;;18.45;43.59
78317;BME280;67572;50.930;18.276;2023-04-24T09:09:30;97928.97;;;18.27;43.13
78317;BME280;67572;50.930;18.276;2023-04-24T09:12:36;97926.22;;;18.50;43.25
78317;BME280;67572;50.930;18.276;2023-04-24T09:15:40;97924.97;;;18.09;41.94
78317;BME280;67572;50.930;18.276;2023-04-24T09:18:44;97934.09;;;18.22;43.42
78317;BME280;67572;50.930;18.276;2023-04-24T09:21:53;97927.03;;;18.21;42.57
78317;BME280;67572;50.930;18.276;2023-04-24T09:25:02;97933.25;;;18.22;43.34
78317;BME280;67572;50.930;18.276;2023-04-24T09:28:07;97918.78;;;18.23;43.48
78317;BME280;67572;50.930;18.276;2023-04-24T09:31:12;97921.38;;;18.16;42.72
78317;BME280;67572;50.930;18.276;2023-04-24T09:34:21;97926.38;;;18.34;42.58
78317;BME280;67572;50.930;18.276;2023-04-24T09:37:30;97921.03;;;18.64;42.44
78317;BME280;67572;50.930;18.276;2023-04-24T09:40:34;97918.72;;;18.61;42.39
78317;BME280;67572;50.930;18.276;2023-04-24T09:43:41;97918.16;;;18.80;41.84
78317;BME280;67572;50.930;18.276;2023-04-24T09:46:49;97916.06;;;19.11;41.52
78317;BME280;67572;50.930;18.276;2023-04-24T09:49:57;97908.06;;;18.97;43.45
78317;BME280;67572;50.930;18.276;2023-04-24T09:53:04;97913.97;;;18.63;43.55
78317;BME280;67572;50.930;18.276;2023-04-24T09:56:08;97911.84;;;18.73;43.43
78317;BME280;67572;50.930;18.276;2023-04-24T09:59:17;97905.38;;;18.82;42.09
78317;BME280;67572;50.930;18.276;2023-04-24T10:02:21;97902.91;;;18.57;41.27
78317;BME280;67572;50.930;18.276;2023-04-24T10:05:27;97899.94;;;18.23;43.18
78317;BME280;67572;50.930;18.276;2023-04-24T10:08:35;97907.00;;;18.24;43.21
78317;BME280;67572;50.930;18.276;2023-04-24T10:11:42;97901.06;;;18.14;42.92
78317;BME280;67572;50.930;18.276;2023-04-24T10:14:48;97908.53;;;18.03;42.67
78317;BME280;67572;50.930;18.276;2023-04-24T10:17:52;97903.06;;;18.12;44.08
78317;BME280;67572;50.930;18.276;2023-04-24T10:20:56;97905.97;;;18.25;43.70
78317;BME280;67572;50.930;18.276;2023-04-24T10:24:02;97893.69;;;17.93;43.22
78317;BME280;67572;50.930;18.276;2023-04-24T10:27:07;97896.56;;;18.21;43.51
78317;BME280;67572;50.930;18.276;2023-04-24T10:30:13;97896.22;;;18.24;43.30
78317;BME280;67572;50.930;18.276;2023-04-24T10:33:17;97898.00;;;18.46;43.00
78317;BME280;67572;50.930;18.276;2023-04-24T10:36:22;97891.50;;;18.26;43.55
78317;BME280;67572;50.930;18.276;2023-04-24T10:39:30;97889.81;;;18.25;43.08
78317;BME280;67572;50.930;18.276;2023-04-24T10:42:39;97894.28;;;19.06;43.17
78317;BME280;67572;50.930;18.276;2023-04-24T10:46:00;97888.34;;;18.81;42.76
78317;BME280;67572;50.930;18.276;2023-04-24T10:49:05;97883.72;;;18.90;42.27
78317;BME280;67572;50.930;18.276;2023-04-24T10:52:10;97889.59;;;19.51;43.60
78317;BME280;67572;50.930;18.276;2023-04-24T10:55:15;97886.38;;;19.62;43.45
78317;BME280;67572;50.930;18.276;2023-04-24T10:58:22;97874.00;;;19.10;43.83
78317;BME280;67572;50.930;18.276;2023-04-24T11:01:27;97877.66;;;18.58;44.03
78317;BME280;67572;50.930;18.276;2023-04-24T11:04:33;97887.97;;;18.40;44.51
78317;BME280;67572;50.930;18.276;2023-04-24T11:08:10;97876.22;;;18.71;44.56
78317;BME280;67572;50.930;18.276;2023-04-24T11:11:16;97879.06;;;18.99;44.06
78317;BME280;67572;50.930;18.276;2023-04-24T11:14:20;97878.50;;;19.25;43.68
78317;BME280;67572;50.930;18.276;2023-04-24T11:17:28;97870.16;;;18.98;43.57
78317;BME280;67572;50.930;18.276;2023-04-24T11:20:32;97868.63;;;18.96;42.81
78317;BME280;67572;50.930;18.276;2023-04-24T11:23:36;97868.66;;;18.81;43.64
78317;BME280;67572;50.930;18.276;2023-04-24T11:26:41;97864.22;;;18.73;44.43
78317;BME280;67572;50.930;18.276;2023-04-24T11:29:46;97859.75;;;18.51;44.16
78317;BME280;67572;50.930;18.276;2023-04-24T11:32:51;97864.97;;;18.08;44.76
78317;BME280;67572;50.930;18.276;2023-04-24T11:35:54;97867.66;;;18.23;44.80
78317;BME280;67572;50.930;18.276;2023-04-24T11:38:58;97871.44;;;17.99;46.15
78317;BME280;67572;50.930;18.276;2023-04-24T11:42:03;97862.13;;;17.64;46.11
78317;BME280;67572;50.930;18.276;2023-04-24T11:45:11;97865.25;;;17.75;44.99
78317;BME280;67572;50.930;18.276;2023-04-24T11:48:18;97867.63;;;17.93;45.54
78317;BME280;67572;50.930;18.276;2023-04-24T11:51:24;97870.03;;;18.03;44.18
78317;BME280;67572;50.930;18.276;2023-04-24T11:54:37;97865.03;;;18.00;44.35
78317;BME280;67572;50.930;18.276;2023-04-24T11:57:44;97868.34;;;17.64;44.77
78317;BME280;67572;50.930;18.276;2023-04-24T12:00:56;97868.66;;;17.46;45.28
78317;BME280;67572;50.930;18.276;2023-04-24T12:04:00;97859.94;;;17.44;45.87
78317;BME280;67572;50.930;18.276;2023-04-24T12:07:04;97853.53;;;17.23;46.20
78317;BME280;67572;50.930;18.276;2023-04-24T12:10:08;97848.00;;;17.24;46.73
78317;BME280;67572;50.930;18.276;2023-04-24T12:13:13;97850.06;;;17.60;49.13
78317;BME280;67572;50.930;18.276;2023-04-24T12:16:17;97861.38;;;17.32;50.05
78317;BME280;67572;50.930;18.276;2023-04-24T12:19:21;97856.97;;;17.16;50.91
78317;BME280;67572;50.930;18.276;2023-04-24T12:22:25;97850.91;;;17.14;51.66
78317;BME280;67572;50.930;18.276;2023-04-24T12:25:30;97855.50;;;17.06;50.49
78317;BME280;67572;50.930;18.276;2023-04-24T12:28:37;97866.84;;;16.93;50.51
78317;BME280;67572;50.930;18.276;2023-04-24T12:31:40;97856.03;;;16.62;51.08
78317;BME280;67572;50.930;18.276;2023-04-24T12:34:44;97871.28;;;16.78;50.71
78317;BME280;67572;50.930;18.276;2023-04-24T12:37:48;97855.56;;;16.58;49.95
78317;BME280;67572;50.930;18.276;2023-04-24T12:41:02;97864.06;;;16.62;52.21
78317;BME280;67572;50.930;18.276;2023-04-24T12:44:10;97858.06;;;16.60;52.50
78317;BME280;67572;50.930;18.276;2023-04-24T12:47:14;97860.22;;;16.64;53.77
78317;BME280;67572;50.930;18.276;2023-04-24T12:50:18;97861.28;;;16.47;51.13
78317;BME280;67572;50.930;18.276;2023-04-24T12:53:22;97858.56;;;16.63;51.15
78317;BME280;67572;50.930;18.276;2023-04-24T12:56:28;97863.84;;;16.88;51.59
78317;BME280;67572;50.930;18.276;2023-04-24T12:59:34;97859.38;;;16.72;51.76
78317;BME280;67572;50.930;18.276;2023-04-24T13:02:37;97860.88;;;16.67;52.59
78317;BME280;67572;50.930;18.276;2023-04-24T13:05:42;97850.53;;;16.55;53.20
78317;BME280;67572;50.930;18.276;2023-04-24T13:08:46;97846.63;;;16.66;53.02
78317;BME280;67572;50.930;18.276;2023-04-24T13:11:50;97843.94;;;16.27;52.37
78317;BME280;67572;50.930;18.276;2023-04-24T13:14:55;97849.50;;;16.17;54.02
78317;BME280;67572;50.930;18.276;2023-04-24T13:17:59;97839.56;;;16.34;54.06
78317;BME280;67572;50.930;18.276;2023-04-24T13:21:03;97832.69;;;16.23;54.22
78317;BME280;67572;50.930;18.276;2023-04-24T13:24:06;97846.66;;;16.58;54.86
78317;BME280;67572;50.930;18.276;2023-04-24T13:27:11;97845.66;;;16.59;55.67
78317;BME280;67572;50.930;18.276;2023-04-24T13:30:16;97840.09;;;16.60;54.24
78317;BME280;67572;50.930;18.276;2023-04-24T13:33:20;97841.66;;;16.47;54.74
78317;BME280;67572;50.930;18.276;2023-04-24T13:36:23;97840.47;;;16.57;52.81
78317;BME280;67572;50.930;18.276;2023-04-24T13:39:27;97834.97;;;16.51;53.31
78317;BME280;67572;50.930;18.276;2023-04-24T13:42:32;97828.00;;;16.33;53.88
78317;BME280;67572;50.930;18.276;2023-04-24T13:45:36;97840.28;;;16.12;54.16
78317;BME280;67572;50.930;18.276;2023-04-24T13:48:40;97834.75;;;16.13;54.14
78317;BME280;67572;50.930;18.276;2023-04-24T13:51:44;97832.97;;;16.45;53.63
78317;BME280;67572;50.930;18.276;2023-04-24T13:54:47;97835.47;;;16.46;52.76
78317;BME280;67572;50.930;18.276;2023-04-24T13:57:51;97826.66;;;16.29;53.18
78317;BME280;67572;50.930;18.276;2023-04-24T14:00:58;97832.81;;;16.38;53.94
78317;BME280;67572;50.930;18.276;2023-04-24T14:04:02;97833.31;;;16.42;53.10
78317;BME280;67572;50.930;18.276;2023-04-24T14:07:05;97827.56;;;16.05;53.78
78317;BME280;67572;50.930;18.276;2023-04-24T14:10:10;97840.63;;;16.00;53.62
78317;BME280;67572;50.930;18.276;2023-04-24T14:13:14;97833.59;;;15.99;54.65
78317;BME280;67572;50.930;18.276;2023-04-24T14:16:19;97832.78;;;15.91;53.07
78317;BME280;67572;50.930;18.276;2023-04-24T14:19:22;97836.16;;;15.76;53.30
78317;BME280;67572;50.930;18.276;2023-04-24T14:22:26;97827.66;;;15.65;53.21
78317;BME280;67572;50.930;18.276;2023-04-24T14:25:29;97837.84;;;15.61;54.67
78317;BME280;67572;50.930;18.276;2023-04-24T14:28:33;97839.34;;;15.47;54.26
78317;BME280;67572;50.930;18.276;2023-04-24T14:31:38;97830.28;;;15.32;54.88
78317;BME280;67572;50.930;18.276;2023-04-24T14:34:41;97840.69;;;15.19;55.04
78317;BME280;67572;50.930;18.276;2023-04-24T14:37:45;97830.13;;;15.25;55.13
78317;BME280;67572;50.930;18.276;2023-04-24T14:40:50;97835.47;;;15.09;55.09
78317;BME280;67572;50.930;18.276;2023-04-24T14:44:08;97835.66;;;15.40;54.75
78317;BME280;67572;50.930;18.276;2023-04-24T14:47:12;97834.81;;;15.48;54.65
78317;BME280;67572;50.930;18.276;2023-04-24T14:50:16;97837.16;;;15.59;55.34
78317;BME280;67572;50.930;18.276;2023-04-24T14:53:20;97841.53;;;15.36;55.02
78317;BME280;67572;50.930;18.276;2023-04-24T14:56:23;97829.28;;;15.09;56.17
78317;BME280;67572;50.930;18.276;2023-04-24T14:59:27;97838.31;;;15.24;55.93
78317;BME280;67572;50.930;18.276;2023-04-24T15:02:32;97842.34;;;15.36;56.06
78317;BME280;67572;50.930;18.276;2023-04-24T15:05:36;97843.84;;;15.14;56.31
78317;BME280;67572;50.930;18.276;2023-04-24T15:08:40;97838.97;;;15.02;56.61
78317;BME280;67572;50.930;18.276;2023-04-24T15:11:43;97838.13;;;14.93;57.40
78317;BME280;67572;50.930;18.276;2023-04-24T15:14:47;97837.13;;;15.18;57.65
78317;BME280;67572;50.930;18.276;2023-04-24T15:17:52;97836.94;;;14.95;58.03
78317;BME280;67572;50.930;18.276;2023-04-24T15:20:55;97834.72;;;14.66;59.18
78317;BME280;67572;50.930;18.276;2023-04-24T15:23:59;97833.19;;;14.64;58.93
78317;BME280;67572;50.930;18.276;2023-04-24T15:27:02;97838.38;;;14.65;59.62
78317;BME280;67572;50.930;18.276;2023-04-24T15:30:07;97839.88;;;14.60;59.93
78317;BME280;67572;50.930;18.276;2023-04-24T15:33:12;97844.97;;;14.45;60.70
78317;BME280;67572;50.930;18.276;2023-04-24T15:36:17;97845.03;;;14.53;61.23
78317;BME280;67572;50.930;18.276;2023-04-24T15:39:22;97844.22;;;14.35;61.35
78317;BME280;67572;50.930;18.276;2023-04-24T15:42:26;97851.28;;;14.36;62.45
78317;BME280;67572;50.930;18.276;2023-04-24T15:45:33;97846.91;;;14.35;61.66
78317;BME280;67572;50.930;18.276;2023-04-24T15:48:38;97833.72;;;14.33;62.11
78317;BME280;67572;50.930;18.276;2023-04-24T15:51:43;97843.06;;;14.03;63.03
78317;BME280;67572;50.930;18.276;2023-04-24T15:54:46;97842.00;;;14.14;63.33
78317;BME280;67572;50.930;18.276;2023-04-24T15:57:50;97840.25;;;14.05;63.82
78317;BME280;67572;50.930;18.276;2023-04-24T16:00:53;97843.25;;;13.76;64.33
78317;BME280;67572;50.930;18.276;2023-04-24T16:03:58;97832.50;;;13.68;64.18
78317;BME280;67572;50.930;18.276;2023-04-24T16:07:02;97837.00;;;13.67;63.84
78317;BME280;67572;50.930;18.276;2023-04-24T16:10:07;97845.38;;;13.72;64.06